createdAt,value
2023-02-19T00:00:11.081Z,0
2023-02-19T00:00:30.482Z,0
2023-02-19T00:01:05.505Z,0
2023-02-19T00:01:37.910Z,0
2023-02-19T00:02:09.515Z,0
2023-02-19T00:02:40.103Z,1.8
2023-02-19T00:03:14.298Z,1.8
2023-02-19T00:03:45.713Z,1.8
2023-02-19T00:04:08.326Z,1.8
2023-02-19T00:04:30.722Z,1.8
2023-02-19T00:05:06.015Z,1.8
2023-02-19T00:05:37.941Z,1.8
2023-02-19T00:06:09.562Z,1.8
2023-02-19T00:06:40.344Z,1.8
2023-02-19T00:07:13.478Z,1.8
2023-02-19T00:07:48.587Z,1.8
2023-02-19T00:08:09.904Z,1.8
2023-02-19T00:08:33.329Z,1.8
2023-02-19T00:09:06.006Z,1.8
2023-02-19T00:09:38.054Z,1.8
2023-02-19T00:10:11.351Z,1.8
2023-02-19T00:10:40.301Z,1.8
2023-02-19T00:11:13.957Z,2.9
2023-02-19T00:11:49.160Z,2.9
2023-02-19T00:12:08.286Z,2.9
2023-02-19T00:12:34.179Z,2.9
2023-02-19T00:13:05.818Z,2.9
2023-02-19T00:13:38.779Z,2.9
2023-02-19T00:14:15.455Z,1.1
2023-02-19T00:14:40.082Z,1.1
2023-02-19T00:15:13.993Z,1.1
2023-02-19T00:15:46.054Z,1.1
2023-02-19T00:16:08.724Z,1.1
2023-02-19T00:16:30.912Z,2.9
2023-02-19T00:17:07.632Z,2.9
2023-02-19T00:17:37.680Z,2.9
2023-02-19T00:18:09.966Z,2.9
2023-02-19T00:18:39.964Z,2.9
2023-02-19T00:19:13.779Z,4.1
2023-02-19T00:19:46.537Z,4.1
2023-02-19T00:20:09.444Z,4.1
2023-02-19T00:20:31.899Z,4.1
2023-02-19T00:21:05.445Z,4.1
2023-02-19T00:21:37.952Z,4.1
2023-02-19T00:22:09.425Z,2.9
2023-02-19T00:22:41.108Z,4.8
2023-02-19T00:23:13.856Z,4.8
2023-02-19T00:23:46.821Z,4.8
2023-02-19T00:24:09.726Z,4.8
2023-02-19T00:24:32.032Z,4.8
2023-02-19T00:25:07.581Z,4.8
2023-02-19T00:25:37.653Z,4.8
2023-02-19T00:26:18.322Z,4.8
2023-02-19T00:26:43.481Z,2.9
2023-02-19T00:27:14.137Z,2.9
2023-02-19T00:27:45.683Z,2.9
2023-02-19T00:28:08.265Z,2.9
2023-02-19T00:28:31.659Z,2.9
2023-02-19T00:29:07.199Z,2.9
2023-02-19T00:29:38.390Z,2.9
2023-02-19T00:30:09.938Z,1.8
2023-02-19T00:30:40.192Z,1.8
2023-02-19T00:31:14.099Z,1.8
2023-02-19T00:31:46.291Z,1.8
2023-02-19T00:32:08.664Z,1.8
2023-02-19T00:32:30.903Z,1.8
2023-02-19T00:33:06.526Z,0
2023-02-19T00:33:39.781Z,0
2023-02-19T00:34:10.074Z,0
2023-02-19T00:34:39.816Z,0
2023-02-19T00:35:14.609Z,0
2023-02-19T00:35:45.393Z,0
2023-02-19T00:36:08.163Z,0
2023-02-19T00:36:30.783Z,1.1
2023-02-19T00:37:06.562Z,1.1
2023-02-19T00:37:38.376Z,1.1
2023-02-19T00:38:09.891Z,1.1
2023-02-19T00:38:40.286Z,1.1
2023-02-19T00:39:13.734Z,1.1
2023-02-19T00:39:46.483Z,1.1
2023-02-19T00:40:09.096Z,1.1
2023-02-19T00:40:31.547Z,2.9
2023-02-19T00:41:06.543Z,2.9
2023-02-19T00:41:38.558Z,2.9
2023-02-19T00:42:10.302Z,2.9
2023-02-19T00:42:41.686Z,2.9
2023-02-19T00:43:14.718Z,2.9
2023-02-19T00:43:46.280Z,2.9
2023-02-19T00:44:08.946Z,2.9
2023-02-19T00:44:32.004Z,2.9
2023-02-19T00:45:06.195Z,2.9
2023-02-19T00:45:37.566Z,2.9
2023-02-19T00:46:09.696Z,2.9
2023-02-19T00:46:40.167Z,1.8
2023-02-19T00:47:13.870Z,1.8
2023-02-19T00:47:46.057Z,1.8
2023-02-19T00:48:08.673Z,1.8
2023-02-19T00:48:33.936Z,1.8
2023-02-19T00:49:06.621Z,1.8
2023-02-19T00:49:37.524Z,1.8
2023-02-19T00:50:10.755Z,1.8
2023-02-19T00:50:41.547Z,0
2023-02-19T00:51:14.305Z,0
2023-02-19T00:51:48.212Z,0
2023-02-19T00:52:10.346Z,0
2023-02-19T00:52:33.181Z,0
2023-02-19T00:53:06.091Z,0
2023-02-19T00:53:38.493Z,0
2023-02-19T00:54:09.733Z,0
2023-02-19T00:54:41.076Z,0
2023-02-19T00:55:13.596Z,1.1
2023-02-19T00:55:46.179Z,1.1
2023-02-19T00:56:08.972Z,1.1
2023-02-19T00:56:33.791Z,1.1
2023-02-19T00:57:06.950Z,1.1
2023-02-19T00:57:37.507Z,1.1
2023-02-19T00:58:10.622Z,1.1
2023-02-19T00:58:39.878Z,1.1
2023-02-19T00:59:13.595Z,1.1
2023-02-19T00:59:45.972Z,1.1
2023-02-19T01:00:09.341Z,1.1
2023-02-19T01:00:33.971Z,1.1
2023-02-19T01:01:06.770Z,1.1
2023-02-19T01:01:38.049Z,1.1
2023-02-19T01:02:11.932Z,1.1
2023-02-19T01:02:41.741Z,1.1
2023-02-19T01:03:13.788Z,1.1
2023-02-19T01:03:46.836Z,1.1
2023-02-19T01:04:09.501Z,1.1
2023-02-19T01:04:31.938Z,1.1
2023-02-19T01:05:06.619Z,1.1
2023-02-19T01:05:37.404Z,1.1
2023-02-19T01:06:11.010Z,0
2023-02-19T01:06:42.624Z,0
2023-02-19T01:07:14.785Z,0
2023-02-19T01:07:46.014Z,0
2023-02-19T01:08:08.650Z,0
2023-02-19T01:08:31.757Z,0
2023-02-19T01:09:06.047Z,0
2023-02-19T01:09:39.644Z,0
2023-02-19T01:10:09.587Z,0
2023-02-19T01:10:42.847Z,0
2023-02-19T01:11:13.597Z,0
2023-02-19T01:11:46.314Z,0
2023-02-19T01:12:08.858Z,0
2023-02-19T01:12:33.765Z,0
2023-02-19T01:13:06.445Z,0
2023-02-19T01:13:38.642Z,0
2023-02-19T01:14:10.285Z,0
2023-02-19T01:14:40.001Z,0
2023-02-19T01:15:14.189Z,0
2023-02-19T01:15:45.724Z,0
2023-02-19T01:16:08.300Z,0
2023-02-19T01:16:31.481Z,0
2023-02-19T01:17:05.665Z,0
2023-02-19T01:17:37.629Z,0
2023-02-19T01:18:09.677Z,0
2023-02-19T01:18:40.527Z,0
2023-02-19T01:19:14.265Z,0
2023-02-19T01:19:46.492Z,0
2023-02-19T01:20:09.208Z,0
2023-02-19T01:20:31.628Z,0
2023-02-19T01:21:05.426Z,0
2023-02-19T01:21:38.003Z,0
2023-02-19T01:22:09.884Z,0
2023-02-19T01:22:40.309Z,0
2023-02-19T01:23:13.856Z,1.8
2023-02-19T01:23:46.607Z,1.8
2023-02-19T01:24:09.217Z,1.8
2023-02-19T01:24:31.907Z,1.8
2023-02-19T01:25:05.417Z,1.8
2023-02-19T01:25:38.352Z,1.8
2023-02-19T01:26:09.349Z,1.8
2023-02-19T01:26:40.987Z,1.8
2023-02-19T01:27:13.997Z,1.8
2023-02-19T01:27:51.289Z,1.8
2023-02-19T01:28:08.632Z,1.8
2023-02-19T01:28:31.864Z,1.8
2023-02-19T01:29:06.054Z,1.8
2023-02-19T01:29:38.657Z,1.8
2023-02-19T01:30:09.709Z,1.8
2023-02-19T01:30:40.118Z,1.8
2023-02-19T01:31:13.988Z,1.8
2023-02-19T01:31:45.614Z,1.8
2023-02-19T01:32:08.513Z,1.8
2023-02-19T01:32:31.684Z,1.8
2023-02-19T01:33:05.603Z,1.8
2023-02-19T01:33:39.311Z,1.8
2023-02-19T01:34:09.741Z,0
2023-02-19T01:34:40.418Z,0
2023-02-19T01:35:13.437Z,0
2023-02-19T01:35:45.506Z,0
2023-02-19T01:36:08.288Z,0
2023-02-19T01:36:30.493Z,0
2023-02-19T01:37:06.080Z,0
2023-02-19T01:37:40.134Z,0
2023-02-19T01:38:10.264Z,0
2023-02-19T01:38:40.192Z,0
2023-02-19T01:39:13.640Z,0
2023-02-19T01:39:46.337Z,0
2023-02-19T01:40:09.082Z,0
2023-02-19T01:40:31.754Z,0
2023-02-19T01:41:06.268Z,0
2023-02-19T01:41:40.559Z,0
2023-02-19T01:42:09.693Z,1.1
2023-02-19T01:42:40.636Z,1.1
2023-02-19T01:43:13.456Z,1.1
2023-02-19T01:43:45.923Z,1.1
2023-02-19T01:44:08.608Z,1.1
2023-02-19T01:44:31.003Z,1.1
2023-02-19T01:45:06.648Z,1.1
2023-02-19T01:45:37.645Z,1.1
2023-02-19T01:46:09.901Z,1.1
2023-02-19T01:46:41.363Z,1.1
2023-02-19T01:47:13.497Z,1.1
2023-02-19T01:47:45.508Z,1.1
2023-02-19T01:48:08.201Z,1.1
2023-02-19T01:48:31.412Z,1.1
2023-02-19T01:49:05.542Z,1.1
2023-02-19T01:49:37.879Z,1.1
2023-02-19T01:50:09.549Z,1.1
2023-02-19T01:50:41.894Z,1.1
2023-02-19T01:51:13.492Z,1.1
2023-02-19T01:51:45.964Z,1.1
2023-02-19T01:52:08.423Z,1.1
2023-02-19T01:52:31.578Z,1.1
2023-02-19T01:53:06.207Z,0
2023-02-19T01:53:38.477Z,0
2023-02-19T01:54:09.651Z,0
2023-02-19T01:54:42.599Z,0
2023-02-19T01:55:13.541Z,0
2023-02-19T01:55:45.721Z,0
2023-02-19T01:56:08.280Z,0
2023-02-19T01:56:31.129Z,0
2023-02-19T01:57:05.851Z,0
2023-02-19T01:57:37.937Z,0
2023-02-19T01:58:10.273Z,0
2023-02-19T01:58:40.302Z,0
2023-02-19T01:59:13.312Z,0
2023-02-19T01:59:45.896Z,0
2023-02-19T02:00:08.917Z,0
2023-02-19T02:00:33.630Z,0
2023-02-19T02:01:06.116Z,0
2023-02-19T02:01:37.876Z,0
2023-02-19T02:02:09.828Z,0
2023-02-19T02:02:40.296Z,0
2023-02-19T02:03:14.587Z,0
2023-02-19T02:03:45.930Z,0
2023-02-19T02:04:12.840Z,0
2023-02-19T02:04:49.694Z,0
2023-02-19T02:05:12.004Z,0
2023-02-19T02:05:34.393Z,0
2023-02-19T02:06:09.372Z,0
2023-02-19T02:06:40.075Z,0
2023-02-19T02:07:13.666Z,0
2023-02-19T02:07:45.538Z,0
2023-02-19T02:08:10.196Z,0
2023-02-19T02:08:32.614Z,0
2023-02-19T02:09:05.439Z,0
2023-02-19T02:09:37.333Z,0
2023-02-19T02:10:09.635Z,0
2023-02-19T02:10:39.941Z,0
2023-02-19T02:11:13.450Z,0
2023-02-19T02:11:45.828Z,0
2023-02-19T02:12:08.667Z,0
2023-02-19T02:12:31.084Z,0
2023-02-19T02:13:05.342Z,0
2023-02-19T02:13:37.543Z,0
2023-02-19T02:14:09.645Z,0
2023-02-19T02:14:39.986Z,0
2023-02-19T02:15:13.457Z,0
2023-02-19T02:15:46.560Z,0
2023-02-19T02:16:09.309Z,0
2023-02-19T02:16:31.548Z,0
2023-02-19T02:17:05.481Z,0
2023-02-19T02:17:37.729Z,0
2023-02-19T02:18:09.525Z,0
2023-02-19T02:18:39.903Z,0
2023-02-19T02:19:13.686Z,0
2023-02-19T02:19:46.894Z,0
2023-02-19T02:20:08.221Z,0
2023-02-19T02:20:30.884Z,0
2023-02-19T02:21:05.328Z,0
2023-02-19T02:21:37.384Z,0
2023-02-19T02:22:09.411Z,0
2023-02-19T02:22:40.192Z,0
2023-02-19T02:23:13.513Z,0
2023-02-19T02:23:47.580Z,0
2023-02-19T02:24:08.827Z,0
2023-02-19T02:24:31.311Z,0
2023-02-19T02:25:05.416Z,0
2023-02-19T02:25:37.496Z,0
2023-02-19T02:26:09.413Z,0
2023-02-19T02:26:40.044Z,0
2023-02-19T02:27:13.493Z,0
2023-02-19T02:27:47.746Z,0
2023-02-19T02:28:08.111Z,0
2023-02-19T02:28:30.499Z,0
2023-02-19T02:29:05.357Z,0
2023-02-19T02:29:37.383Z,0
2023-02-19T02:30:09.994Z,0
2023-02-19T02:30:39.878Z,0
2023-02-19T02:31:13.834Z,0
2023-02-19T02:31:45.529Z,0
2023-02-19T02:32:08.398Z,0
2023-02-19T02:32:30.521Z,0
2023-02-19T02:33:05.720Z,0
2023-02-19T02:33:37.283Z,0
2023-02-19T02:34:09.455Z,0
2023-02-19T02:34:39.954Z,1.8
2023-02-19T02:35:13.683Z,1.8
2023-02-19T02:35:45.578Z,1.8
2023-02-19T02:36:08.332Z,1.8
2023-02-19T02:36:30.645Z,1.8
2023-02-19T02:37:05.490Z,1.8
2023-02-19T02:37:37.445Z,1.8
2023-02-19T02:38:09.553Z,1.8
2023-02-19T02:38:40.044Z,1.8
2023-02-19T02:39:13.466Z,1.8
2023-02-19T02:39:45.381Z,1.8
2023-02-19T02:40:08.843Z,1.8
2023-02-19T02:40:31.212Z,1.8
2023-02-19T02:41:05.541Z,1.8
2023-02-19T02:41:37.326Z,2.9
2023-02-19T02:42:09.420Z,2.9
2023-02-19T02:42:40.113Z,2.9
2023-02-19T02:43:13.517Z,2.9
2023-02-19T02:43:45.316Z,2.9
2023-02-19T02:44:08.194Z,2.9
2023-02-19T02:44:30.775Z,2.9
2023-02-19T02:45:05.626Z,2.9
2023-02-19T02:45:37.756Z,2.9
2023-02-19T02:46:09.323Z,1.1
2023-02-19T02:46:39.977Z,1.1
2023-02-19T02:47:13.645Z,1.1
2023-02-19T02:47:45.689Z,2.9
2023-02-19T02:48:09.644Z,2.9
2023-02-19T02:48:32.325Z,2.9
2023-02-19T02:49:05.367Z,2.9
2023-02-19T02:49:37.744Z,2.9
2023-02-19T02:50:10.845Z,2.9
2023-02-19T02:50:40.041Z,2.9
2023-02-19T02:51:13.488Z,2.9
2023-02-19T02:51:45.391Z,1.8
2023-02-19T02:52:09.607Z,1.8
2023-02-19T02:52:32.050Z,1.8
2023-02-19T02:53:05.770Z,1.8
2023-02-19T02:53:37.520Z,1.8
2023-02-19T02:54:09.493Z,1.8
2023-02-19T02:54:41.550Z,1.8
2023-02-19T02:55:13.465Z,1.8
2023-02-19T02:55:45.340Z,1.8
2023-02-19T02:56:08.705Z,1.8
2023-02-19T02:56:31.273Z,1.8
2023-02-19T02:57:05.568Z,1.8
2023-02-19T02:57:42.957Z,1.8
2023-02-19T02:58:09.717Z,1.8
2023-02-19T02:58:39.965Z,0
2023-02-19T02:59:13.713Z,0
2023-02-19T02:59:45.351Z,0
2023-02-19T03:00:09.092Z,0
2023-02-19T03:00:31.176Z,0
2023-02-19T03:01:05.492Z,0
2023-02-19T03:01:37.455Z,0
2023-02-19T03:02:09.452Z,0
2023-02-19T03:02:42.911Z,0
2023-02-19T03:03:07.280Z,0
2023-02-19T03:04:08.900Z,0
2023-02-19T03:04:33.980Z,0
2023-02-19T03:05:05.520Z,0
2023-02-19T03:05:40.401Z,0
2023-02-19T03:06:10.277Z,0
2023-02-19T03:06:40.709Z,0
2023-02-19T03:07:13.906Z,0
2023-02-19T03:07:48.439Z,0
2023-02-19T03:08:11.169Z,0
2023-02-19T03:08:49.371Z,0
2023-02-19T03:09:12.230Z,0
2023-02-19T03:09:37.255Z,0
2023-02-19T03:10:10.387Z,0
2023-02-19T03:10:40.191Z,0
2023-02-19T03:11:14.944Z,0
2023-02-19T03:11:47.154Z,0
2023-02-19T03:12:09.683Z,0
2023-02-19T03:12:36.134Z,0
2023-02-19T03:13:05.634Z,0
2023-02-19T03:13:41.137Z,0
2023-02-19T03:14:03.527Z,0
2023-02-19T03:14:40.242Z,0
2023-02-19T03:15:13.975Z,0
2023-02-19T03:15:45.855Z,0
2023-02-19T03:16:08.575Z,0
2023-02-19T03:16:31.087Z,0
2023-02-19T03:17:06.390Z,0
2023-02-19T03:17:37.483Z,0
2023-02-19T03:18:11.540Z,0
2023-02-19T03:18:40.041Z,0
2023-02-19T03:19:13.564Z,0
2023-02-19T03:19:47.273Z,0
2023-02-19T03:20:08.170Z,0
2023-02-19T03:20:30.728Z,0
2023-02-19T03:21:05.365Z,0
2023-02-19T03:21:37.452Z,0
2023-02-19T03:22:09.334Z,0
2023-02-19T03:22:40.380Z,0
2023-02-19T03:23:13.465Z,0
2023-02-19T03:23:45.302Z,0
2023-02-19T03:24:07.972Z,0
2023-02-19T03:24:30.393Z,0
2023-02-19T03:25:05.379Z,0
2023-02-19T03:25:37.830Z,0
2023-02-19T03:26:09.353Z,0
2023-02-19T03:26:40.059Z,0
2023-02-19T03:27:13.600Z,0
2023-02-19T03:27:45.375Z,0
2023-02-19T03:28:08.510Z,1.8
2023-02-19T03:28:30.821Z,1.8
2023-02-19T03:29:05.373Z,1.8
2023-02-19T03:29:37.453Z,1.8
2023-02-19T03:30:09.762Z,1.8
2023-02-19T03:30:39.990Z,1.8
2023-02-19T03:31:13.737Z,1.8
2023-02-19T03:31:45.582Z,1.8
2023-02-19T03:32:08.711Z,1.8
2023-02-19T03:32:30.906Z,2.9
2023-02-19T03:33:05.427Z,2.9
2023-02-19T03:33:37.443Z,2.9
2023-02-19T03:34:09.305Z,2.9
2023-02-19T03:34:40.058Z,4.8
2023-02-19T03:35:13.459Z,4.8
2023-02-19T03:35:45.354Z,4.8
2023-02-19T03:36:07.902Z,4.8
2023-02-19T03:36:30.516Z,5.9
2023-02-19T03:37:05.540Z,5.9
2023-02-19T03:37:37.477Z,5.9
2023-02-19T03:38:09.475Z,5.9
2023-02-19T03:38:40.059Z,4.1
2023-02-19T03:39:13.491Z,4.1
2023-02-19T03:39:45.403Z,4.1
2023-02-19T03:40:08.706Z,4.1
2023-02-19T03:40:30.947Z,4.1
2023-02-19T03:41:05.484Z,4.1
2023-02-19T03:41:37.390Z,5.9
2023-02-19T03:42:09.693Z,5.9
2023-02-19T03:42:43.513Z,4.8
2023-02-19T03:43:13.444Z,4.8
2023-02-19T03:43:45.378Z,4.8
2023-02-19T03:44:08.046Z,4.8
2023-02-19T03:44:30.488Z,4.1
2023-02-19T03:45:05.584Z,4.1
2023-02-19T03:45:37.364Z,4.1
2023-02-19T03:46:09.558Z,4.1
2023-02-19T03:46:40.112Z,2.9
2023-02-19T03:47:13.397Z,4.8
2023-02-19T03:47:45.375Z,4.8
2023-02-19T03:48:08.572Z,4.8
2023-02-19T03:48:30.902Z,4.8
2023-02-19T03:49:05.574Z,4.8
2023-02-19T03:49:37.399Z,4.8
2023-02-19T03:50:09.428Z,4.8
2023-02-19T03:50:40.544Z,4.8
2023-02-19T03:51:13.513Z,4.8
2023-02-19T03:51:45.701Z,4.1
2023-02-19T03:52:09.027Z,4.1
2023-02-19T03:52:31.419Z,4.1
2023-02-19T03:53:05.462Z,4.1
2023-02-19T03:53:37.420Z,5.9
2023-02-19T03:54:09.359Z,5.9
2023-02-19T03:54:40.145Z,4.8
2023-02-19T03:55:13.411Z,4.8
2023-02-19T03:55:45.501Z,4.8
2023-02-19T03:56:08.493Z,4.8
2023-02-19T03:56:31.005Z,4.8
2023-02-19T03:57:05.522Z,4.8
2023-02-19T03:57:37.479Z,4.1
2023-02-19T03:58:09.553Z,4.1
2023-02-19T03:58:40.061Z,4.1
2023-02-19T03:59:13.328Z,4.1
2023-02-19T03:59:45.401Z,4.1
2023-02-19T04:00:08.930Z,4.1
2023-02-19T04:00:32.575Z,4.1
2023-02-19T04:01:05.637Z,4.1
2023-02-19T04:01:37.503Z,4.1
2023-02-19T04:02:09.509Z,2.9
2023-02-19T04:02:40.028Z,2.9
2023-02-19T04:03:13.396Z,2.9
2023-02-19T04:03:45.992Z,1.1
2023-02-19T04:04:09.501Z,2.9
2023-02-19T04:04:31.497Z,2.9
2023-02-19T04:05:07.890Z,4.8
2023-02-19T04:05:37.448Z,4.8
2023-02-19T04:06:09.860Z,4.8
2023-02-19T04:06:41.447Z,4.8
2023-02-19T04:07:14.980Z,4.8
2023-02-19T04:07:45.562Z,3.6
2023-02-19T04:08:08.184Z,3.6
2023-02-19T04:08:30.839Z,3.6
2023-02-19T04:09:05.405Z,3.6
2023-02-19T04:09:37.382Z,3.6
2023-02-19T04:10:09.782Z,3.6
2023-02-19T04:10:40.138Z,3.6
2023-02-19T04:11:13.456Z,3.6
2023-02-19T04:11:45.576Z,3.6
2023-02-19T04:12:09.280Z,3.6
2023-02-19T04:12:31.570Z,3.6
2023-02-19T04:13:05.672Z,3.6
2023-02-19T04:13:37.336Z,3.6
2023-02-19T04:14:09.466Z,3.6
2023-02-19T04:14:39.969Z,1.8
2023-02-19T04:15:13.676Z,1.8
2023-02-19T04:15:45.473Z,0
2023-02-19T04:16:09.143Z,0
2023-02-19T04:16:31.495Z,0
2023-02-19T04:17:05.685Z,0
2023-02-19T04:17:37.264Z,0
2023-02-19T04:18:09.382Z,0
2023-02-19T04:18:39.935Z,0
2023-02-19T04:19:13.982Z,0
2023-02-19T04:19:45.223Z,0
2023-02-19T04:20:09.379Z,0
2023-02-19T04:20:31.838Z,0
2023-02-19T04:21:05.227Z,0
2023-02-19T04:21:37.267Z,0
2023-02-19T04:22:09.314Z,0
2023-02-19T04:22:40.208Z,0
2023-02-19T04:23:13.966Z,0
2023-02-19T04:23:45.676Z,0
2023-02-19T04:24:08.354Z,0
2023-02-19T04:24:30.680Z,0
2023-02-19T04:25:05.362Z,0
2023-02-19T04:25:37.368Z,0
2023-02-19T04:26:09.317Z,0
2023-02-19T04:26:40.102Z,0
2023-02-19T04:27:13.361Z,0
2023-02-19T04:27:45.325Z,0
2023-02-19T04:28:08.043Z,0
2023-02-19T04:28:30.543Z,0
2023-02-19T04:29:05.361Z,0
2023-02-19T04:29:39.155Z,0
2023-02-19T04:30:09.526Z,0
2023-02-19T04:30:40.308Z,0
2023-02-19T04:31:13.703Z,0
2023-02-19T04:31:45.277Z,0
2023-02-19T04:32:08.006Z,0
2023-02-19T04:32:30.498Z,0
2023-02-19T04:33:05.907Z,0
2023-02-19T04:33:37.414Z,0
2023-02-19T04:34:09.319Z,0
2023-02-19T04:34:39.898Z,0
2023-02-19T04:35:13.338Z,0
2023-02-19T04:35:45.425Z,0
2023-02-19T04:36:08.428Z,0
2023-02-19T04:36:30.921Z,0
2023-02-19T04:37:08.993Z,0
2023-02-19T04:37:37.466Z,0
2023-02-19T04:38:09.467Z,0
2023-02-19T04:38:40.079Z,0
2023-02-19T04:39:13.441Z,0
2023-02-19T04:39:45.701Z,0
2023-02-19T04:40:08.909Z,0
2023-02-19T04:40:30.821Z,0
2023-02-19T04:41:08.229Z,1.1
2023-02-19T04:41:37.501Z,1.1
2023-02-19T04:42:09.587Z,1.1
2023-02-19T04:42:40.264Z,1.1
2023-02-19T04:43:13.360Z,1.1
2023-02-19T04:43:45.338Z,1.1
2023-02-19T04:44:09.628Z,1.1
2023-02-19T04:44:32.031Z,1.1
2023-02-19T04:45:07.747Z,2.9
2023-02-19T04:45:37.298Z,2.9
2023-02-19T04:46:09.455Z,2.9
2023-02-19T04:46:42.887Z,2.9
2023-02-19T04:47:13.366Z,2.9
2023-02-19T04:47:45.376Z,2.9
2023-02-19T04:48:08.256Z,2.9
2023-02-19T04:48:30.517Z,2.9
2023-02-19T04:49:05.391Z,2.9
2023-02-19T04:49:37.259Z,2.9
2023-02-19T04:50:09.298Z,2.9
2023-02-19T04:50:40.169Z,2.9
2023-02-19T04:51:13.514Z,2.9
2023-02-19T04:51:45.636Z,2.9
2023-02-19T04:52:09.051Z,2.9
2023-02-19T04:52:31.078Z,2.9
2023-02-19T04:53:05.402Z,4.8
2023-02-19T04:53:37.409Z,4.8
2023-02-19T04:54:09.253Z,4.8
2023-02-19T04:54:43.558Z,4.8
2023-02-19T04:55:13.553Z,4.1
2023-02-19T04:55:45.356Z,4.1
2023-02-19T04:56:09.262Z,5.9
2023-02-19T04:56:30.424Z,5.9
2023-02-19T04:57:05.520Z,5.9
2023-02-19T04:57:37.607Z,5.9
2023-02-19T04:58:09.507Z,5.9
2023-02-19T04:58:40.089Z,5.9
2023-02-19T04:59:13.511Z,5.9
2023-02-19T04:59:46.772Z,5.9
2023-02-19T05:00:12.179Z,5.9
2023-02-19T05:00:49.820Z,5.9
2023-02-19T05:01:13.096Z,5.9
2023-02-19T05:01:35.325Z,5.9
2023-02-19T05:02:11.964Z,5.9
2023-02-19T05:02:40.308Z,4.8
2023-02-19T05:03:13.865Z,4.8
2023-02-19T05:03:46.880Z,2.9
2023-02-19T05:04:11.616Z,2.9
2023-02-19T05:04:30.697Z,2.9
2023-02-19T05:05:10.994Z,2.9
2023-02-19T05:05:37.910Z,2.9
2023-02-19T05:06:13.205Z,1.8
2023-02-19T05:06:40.588Z,0
2023-02-19T05:07:13.619Z,0
2023-02-19T05:07:45.494Z,0
2023-02-19T05:08:12.730Z,0
2023-02-19T05:08:32.063Z,0
2023-02-19T05:09:05.575Z,0
2023-02-19T05:09:37.898Z,0
2023-02-19T05:10:09.577Z,0
2023-02-19T05:10:42.008Z,0
2023-02-19T05:11:13.653Z,0
2023-02-19T05:11:45.359Z,0
2023-02-19T05:12:08.540Z,0
2023-02-19T05:12:31.664Z,0
2023-02-19T05:13:05.804Z,0
2023-02-19T05:13:37.636Z,0
2023-02-19T05:14:09.312Z,0
2023-02-19T05:14:39.976Z,0
2023-02-19T05:15:13.422Z,0
2023-02-19T05:15:45.280Z,0
2023-02-19T05:16:09.449Z,0
2023-02-19T05:16:31.820Z,0
2023-02-19T05:17:05.208Z,0
2023-02-19T05:17:37.688Z,0
2023-02-19T05:18:09.300Z,0
2023-02-19T05:18:39.989Z,0
2023-02-19T05:19:14.173Z,0
2023-02-19T05:19:45.378Z,0
2023-02-19T05:20:10.522Z,0
2023-02-19T05:20:32.681Z,0
2023-02-19T05:21:05.318Z,0
2023-02-19T05:21:37.587Z,0
2023-02-19T05:22:09.405Z,0
2023-02-19T05:22:39.990Z,0
2023-02-19T05:23:14.948Z,0
2023-02-19T05:23:45.176Z,0
2023-02-19T05:24:08.483Z,0
2023-02-19T05:24:30.916Z,0
2023-02-19T05:25:05.269Z,0
2023-02-19T05:25:37.318Z,0
2023-02-19T05:26:09.334Z,0
2023-02-19T05:26:40.013Z,0
2023-02-19T05:27:15.413Z,0
2023-02-19T05:27:45.309Z,0
2023-02-19T05:28:08.816Z,0
2023-02-19T05:28:31.214Z,0
2023-02-19T05:29:05.358Z,0
2023-02-19T05:29:37.405Z,0
2023-02-19T05:30:09.871Z,0
2023-02-19T05:30:36.451Z,0
2023-02-19T05:31:16.088Z,0
2023-02-19T05:31:45.546Z,0
2023-02-19T05:32:08.137Z,0
2023-02-19T05:32:31.945Z,0
2023-02-19T05:33:05.471Z,0
2023-02-19T05:33:37.638Z,0
2023-02-19T05:34:09.288Z,0
2023-02-19T05:34:40.059Z,0
2023-02-19T05:35:16.835Z,0
2023-02-19T05:35:49.113Z,0
2023-02-19T05:36:11.621Z,0
2023-02-19T05:36:49.138Z,0
2023-02-19T05:37:11.851Z,0
2023-02-19T05:37:35.665Z,0
2023-02-19T05:38:10.111Z,0
2023-02-19T05:38:41.603Z,0
2023-02-19T05:39:14.312Z,0
2023-02-19T05:39:45.242Z,0
2023-02-19T05:40:09.478Z,0
2023-02-19T05:40:34.324Z,0
2023-02-19T05:41:05.339Z,0
2023-02-19T05:41:37.512Z,0
2023-02-19T05:42:09.370Z,0
2023-02-19T05:42:40.289Z,0
2023-02-19T05:43:13.299Z,0
2023-02-19T05:43:46.008Z,0
2023-02-19T05:44:09.230Z,0
2023-02-19T05:44:31.372Z,0
2023-02-19T05:45:05.724Z,0
2023-02-19T05:45:37.122Z,0
2023-02-19T05:46:09.553Z,0
2023-02-19T05:46:40.140Z,0
2023-02-19T05:47:13.500Z,0
2023-02-19T05:47:45.859Z,0
2023-02-19T05:48:08.755Z,0
2023-02-19T05:48:31.871Z,0
2023-02-19T05:49:05.407Z,0
2023-02-19T05:49:37.739Z,0
2023-02-19T05:50:09.181Z,0
2023-02-19T05:50:40.124Z,0
2023-02-19T05:51:13.768Z,0
2023-02-19T05:51:45.557Z,0
2023-02-19T05:52:08.284Z,0
2023-02-19T05:52:30.651Z,0
2023-02-19T05:53:05.986Z,0
2023-02-19T05:53:37.277Z,0
2023-02-19T05:54:09.493Z,0
2023-02-19T05:54:39.919Z,0
2023-02-19T05:55:14.421Z,0
2023-02-19T05:55:46.036Z,0
2023-02-19T05:56:08.821Z,0
2023-02-19T05:56:31.351Z,0
2023-02-19T05:57:05.587Z,0
2023-02-19T05:57:43.823Z,0
2023-02-19T05:58:09.756Z,0
2023-02-19T05:58:40.272Z,0
2023-02-19T05:59:13.258Z,0
2023-02-19T05:59:45.704Z,0
2023-02-19T06:00:08.387Z,0
2023-02-19T06:00:31.131Z,0
2023-02-19T06:01:05.877Z,0
2023-02-19T06:01:37.781Z,0
2023-02-19T06:02:10.132Z,0
2023-02-19T06:02:43.544Z,0
2023-02-19T06:03:21.621Z,0
2023-02-19T06:03:41.981Z,0
2023-02-19T06:04:11.864Z,0
2023-02-19T06:04:49.879Z,0
2023-02-19T06:05:12.405Z,0
2023-02-19T06:05:34.891Z,0
2023-02-19T06:06:09.266Z,0
2023-02-19T06:06:41.595Z,0
2023-02-19T06:07:13.175Z,0
2023-02-19T06:07:45.293Z,0
2023-02-19T06:08:08.257Z,0
2023-02-19T06:08:30.697Z,0
2023-02-19T06:09:06.819Z,0
2023-02-19T06:09:37.361Z,0
2023-02-19T06:10:09.260Z,0
2023-02-19T06:10:41.398Z,0
2023-02-19T06:11:13.407Z,0
2023-02-19T06:11:45.280Z,0
2023-02-19T06:12:08.178Z,0
2023-02-19T06:12:30.592Z,0
2023-02-19T06:13:05.298Z,0
2023-02-19T06:13:37.438Z,0
2023-02-19T06:14:09.235Z,0
2023-02-19T06:14:40.037Z,0
2023-02-19T06:15:13.378Z,0
2023-02-19T06:15:45.929Z,0
2023-02-19T06:16:09.496Z,0
2023-02-19T06:16:31.752Z,0
2023-02-19T06:17:05.321Z,0
2023-02-19T06:17:37.168Z,0
2023-02-19T06:18:09.303Z,0
2023-02-19T06:18:42.419Z,0
2023-02-19T06:19:13.748Z,0
2023-02-19T06:19:45.420Z,0
2023-02-19T06:20:08.184Z,0
2023-02-19T06:20:30.653Z,0
2023-02-19T06:21:05.493Z,0
2023-02-19T06:21:37.343Z,0
2023-02-19T06:22:09.288Z,0
2023-02-19T06:22:40.095Z,0
2023-02-19T06:23:13.315Z,0
2023-02-19T06:23:45.431Z,0
2023-02-19T06:24:08.262Z,0
2023-02-19T06:24:30.669Z,0
2023-02-19T06:25:05.435Z,0
2023-02-19T06:25:37.262Z,0
2023-02-19T06:26:09.130Z,0
2023-02-19T06:26:39.915Z,0
2023-02-19T06:27:13.875Z,0
2023-02-19T06:27:45.178Z,0
2023-02-19T06:28:07.939Z,0
2023-02-19T06:28:30.314Z,0
2023-02-19T06:29:05.408Z,0
2023-02-19T06:29:37.800Z,0
2023-02-19T06:30:14.789Z,0
2023-02-19T06:30:40.038Z,0
2023-02-19T06:31:13.797Z,0
2023-02-19T06:31:45.309Z,0
2023-02-19T06:32:08.172Z,0
2023-02-19T06:32:30.291Z,0
2023-02-19T06:33:05.533Z,0
2023-02-19T06:33:37.369Z,0
2023-02-19T06:34:09.171Z,0
2023-02-19T06:34:39.945Z,0
2023-02-19T06:35:13.414Z,0
2023-02-19T06:35:45.349Z,0
2023-02-19T06:36:08.241Z,0
2023-02-19T06:36:30.541Z,0
2023-02-19T06:37:05.238Z,0
2023-02-19T06:37:37.142Z,0
2023-02-19T06:38:09.662Z,0
2023-02-19T06:38:40.148Z,0
2023-02-19T06:39:13.332Z,0
2023-02-19T06:39:45.115Z,0
2023-02-19T06:40:14.028Z,0
2023-02-19T06:40:52.952Z,0
2023-02-19T06:41:15.371Z,0
2023-02-19T06:41:53.379Z,0
2023-02-19T06:42:16.045Z,0
2023-02-19T06:42:38.773Z,0
2023-02-19T06:43:13.300Z,0
2023-02-19T06:43:45.297Z,0
2023-02-19T06:44:08.167Z,0
2023-02-19T06:44:30.633Z,0
2023-02-19T06:45:05.994Z,0
2023-02-19T06:45:38.009Z,0
2023-02-19T06:46:09.406Z,0
2023-02-19T06:46:40.107Z,0
2023-02-19T06:47:13.520Z,0
2023-02-19T06:47:45.628Z,0
2023-02-19T06:48:08.134Z,0
2023-02-19T06:48:31.317Z,0
2023-02-19T06:49:05.741Z,0
2023-02-19T06:49:37.930Z,0
2023-02-19T06:50:09.225Z,0
2023-02-19T06:50:40.274Z,0
2023-02-19T06:51:13.394Z,0
2023-02-19T06:51:48.339Z,0
2023-02-19T06:52:10.726Z,0
2023-02-19T06:52:34.010Z,0
2023-02-19T06:53:05.959Z,0
2023-02-19T06:53:37.892Z,0
2023-02-19T06:54:09.655Z,0
2023-02-19T06:54:40.709Z,0
2023-02-19T06:55:15.316Z,0
2023-02-19T06:55:45.384Z,0
2023-02-19T06:56:07.953Z,0
2023-02-19T06:56:49.282Z,0
2023-02-19T06:57:12.284Z,0
2023-02-19T06:57:34.723Z,0
2023-02-19T06:58:09.491Z,0
2023-02-19T06:58:40.620Z,0
2023-02-19T06:59:13.853Z,0
2023-02-19T06:59:46.283Z,0
2023-02-19T07:00:09.247Z,0
2023-02-19T07:00:31.669Z,0
2023-02-19T07:01:09.667Z,0
2023-02-19T07:01:37.559Z,0
2023-02-19T07:02:10.233Z,0
2023-02-19T07:02:41.752Z,0
2023-02-19T07:03:13.996Z,0
2023-02-19T07:03:48.283Z,0
2023-02-19T07:04:12.997Z,0
2023-02-19T07:04:32.464Z,0
2023-02-19T07:05:06.105Z,0
2023-02-19T07:05:39.224Z,0
2023-02-19T07:06:09.644Z,0
2023-02-19T07:06:43.193Z,0
2023-02-19T07:07:13.430Z,0
2023-02-19T07:07:47.451Z,0
2023-02-19T07:08:10.047Z,0
2023-02-19T07:08:32.453Z,0
2023-02-19T07:09:06.833Z,0
2023-02-19T07:09:37.480Z,0
2023-02-19T07:10:09.376Z,0
2023-02-19T07:10:45.821Z,0
2023-02-19T07:11:08.385Z,0